createdAt,value
2023-03-21T00:00:40.887Z,99.90
2023-03-21T00:03:09.398Z,99.90
2023-03-21T00:05:41.337Z,99.90
2023-03-21T00:08:10.429Z,99.90
2023-03-21T00:10:43.391Z,99.90
2023-03-21T00:13:13.189Z,99.90
2023-03-21T00:16:11.929Z,99.90
2023-03-21T00:18:42.474Z,99.90
2023-03-21T00:24:01.631Z,99.90
2023-03-21T00:26:29.659Z,99.90
2023-03-21T00:28:58.429Z,99.90
2023-03-21T00:31:27.921Z,99.90
2023-03-21T00:33:56.607Z,99.90
2023-03-21T00:36:25.889Z,99.90
2023-03-21T00:38:54.410Z,99.90
2023-03-21T00:41:39.286Z,99.90
2023-03-21T00:44:09.943Z,99.90
2023-03-21T00:46:47.220Z,99.90
2023-03-21T00:49:21.135Z,99.90
2023-03-21T00:51:51.618Z,99.90
2023-03-21T00:54:20.634Z,99.90
2023-03-21T00:56:48.669Z,99.90
2023-03-21T00:59:17.299Z,99.90
2023-03-21T01:01:47.896Z,99.90
2023-03-21T01:04:16.604Z,99.90
2023-03-21T01:06:45.825Z,99.90
2023-03-21T01:09:15.297Z,99.90
2023-03-21T01:11:44.021Z,99.90
2023-03-21T01:14:24.800Z,99.90
2023-03-21T01:16:56.678Z,99.90
2023-03-21T01:19:37.951Z,99.90
2023-03-21T01:22:13.469Z,99.90
2023-03-21T01:24:52.380Z,99.90
2023-03-21T01:27:24.233Z,99.90
2023-03-21T01:29:52.730Z,99.90
2023-03-21T01:32:22.453Z,99.90
2023-03-21T01:34:50.536Z,99.90
2023-03-21T01:37:20.132Z,99.90
2023-03-21T01:39:50.759Z,99.90
2023-03-21T01:42:19.976Z,99.90
2023-03-21T01:44:53.172Z,99.90
2023-03-21T01:47:23.726Z,99.90
2023-03-21T01:50:06.218Z,99.90
2023-03-21T01:52:55.130Z,99.90
2023-03-21T01:55:29.435Z,99.90
2023-03-21T01:58:06.208Z,99.90
2023-03-21T02:00:43.672Z,99.90
2023-03-21T02:03:36.039Z,99.90
2023-03-21T02:06:30.388Z,99.90
2023-03-21T02:09:08.908Z,99.90
2023-03-21T02:11:38.170Z,99.90
2023-03-21T02:14:08.076Z,99.90
2023-03-21T02:16:54.792Z,99.90
2023-03-21T02:19:53.278Z,99.90
2023-03-21T02:22:41.039Z,99.90
2023-03-21T02:25:27.808Z,99.90
2023-03-21T02:28:01.237Z,99.90
2023-03-21T02:30:50.780Z,99.90
2023-03-21T02:33:27.749Z,99.90
2023-03-21T02:36:11.938Z,99.90
2023-03-21T02:38:48.708Z,99.90
2023-03-21T02:41:20.001Z,99.90
2023-03-21T02:43:53.425Z,99.90
2023-03-21T02:46:28.349Z,99.90
2023-03-21T02:49:03.813Z,99.90
2023-03-21T02:51:33.291Z,99.90
2023-03-21T02:54:26.478Z,99.90
2023-03-21T02:56:54.939Z,99.90
2023-03-21T02:59:25.366Z,99.90
2023-03-21T03:01:56.319Z,99.90
2023-03-21T03:04:27.030Z,99.90
2023-03-21T03:07:04.851Z,99.90
2023-03-21T03:09:38.512Z,99.90
2023-03-21T03:12:11.141Z,99.90
2023-03-21T03:15:00.148Z,99.90
2023-03-21T03:17:39.348Z,99.90
2023-03-21T03:20:17.642Z,99.90
2023-03-21T03:22:53.518Z,99.90
2023-03-21T03:25:41.268Z,99.90
2023-03-21T03:28:11.012Z,99.90
2023-03-21T03:30:46.543Z,99.90
2023-03-21T03:33:23.698Z,99.90
2023-03-21T03:36:04.650Z,99.90
2023-03-21T03:38:36.416Z,99.90
2023-03-21T03:41:10.247Z,99.90
2023-03-21T03:43:48.553Z,99.90
2023-03-21T03:46:19.306Z,99.90
2023-03-21T03:48:50.099Z,99.90
2023-03-21T03:51:22.433Z,99.90
2023-03-21T03:54:11.523Z,99.90
2023-03-21T03:56:41.837Z,99.90
2023-03-21T03:59:10.152Z,99.90
2023-03-21T04:01:55.976Z,99.90
2023-03-21T04:04:28.742Z,99.90
2023-03-21T04:06:58.197Z,99.90
2023-03-21T04:09:42.758Z,99.90
2023-03-21T04:12:14.274Z,99.90
2023-03-21T04:14:48.255Z,99.90
2023-03-21T04:17:20.088Z,99.90
2023-03-21T04:19:55.503Z,99.90
2023-03-21T04:22:27.416Z,99.90
2023-03-21T04:24:56.312Z,99.90
2023-03-21T04:27:26.738Z,99.90
2023-03-21T04:30:25.137Z,99.90
2023-03-21T04:33:01.148Z,99.90
2023-03-21T04:35:32.050Z,99.90
2023-03-21T04:38:03.129Z,99.90
2023-03-21T04:40:31.197Z,99.90
2023-03-21T04:43:01.493Z,99.90
2023-03-21T04:45:30.088Z,99.90
2023-03-21T04:47:59.278Z,99.90
2023-03-21T04:50:27.477Z,99.90
2023-03-21T04:52:55.850Z,99.90
2023-03-21T04:55:28.309Z,99.90
2023-03-21T04:57:56.858Z,99.90
2023-03-21T05:00:27.429Z,99.90
2023-03-21T05:02:57.579Z,99.90
2023-03-21T05:05:26.239Z,99.90
2023-03-21T05:07:54.259Z,99.90
2023-03-21T05:10:22.617Z,99.90
2023-03-21T05:12:52.640Z,99.90
2023-03-21T05:15:21.379Z,99.90
2023-03-21T05:17:52.952Z,99.90
2023-03-21T05:20:21.421Z,99.90
2023-03-21T05:22:50.173Z,99.90
2023-03-21T05:25:21.348Z,99.90
2023-03-21T05:28:31.835Z,99.90
2023-03-21T05:31:02.135Z,99.90
2023-03-21T05:33:31.650Z,99.90
2023-03-21T05:36:00.542Z,99.90
2023-03-21T05:38:32.131Z,99.90
2023-03-21T05:41:01.647Z,99.90
2023-03-21T05:43:31.265Z,99.90
2023-03-21T05:46:00.660Z,99.90
2023-03-21T05:48:32.660Z,99.90
2023-03-21T05:51:10.556Z,99.90
2023-03-21T05:53:38.752Z,99.90
2023-03-21T05:56:07.700Z,99.90
2023-03-21T05:58:54.454Z,99.90
2023-03-21T06:01:25.254Z,99.90
2023-03-21T06:04:04.323Z,99.90
2023-03-21T06:06:32.929Z,99.90
2023-03-21T06:09:02.157Z,99.90
2023-03-21T06:11:33.333Z,99.90
2023-03-21T06:14:20.544Z,99.90
2023-03-21T06:17:07.312Z,99.90
2023-03-21T06:19:43.098Z,99.90
2023-03-21T06:22:18.157Z,99.90
2023-03-21T06:24:46.538Z,99.90
2023-03-21T06:27:18.421Z,99.90
2023-03-21T06:29:52.776Z,99.90
2023-03-21T06:32:22.033Z,99.90
2023-03-21T06:34:57.649Z,99.90
2023-03-21T06:37:27.227Z,99.90
2023-03-21T06:39:56.239Z,99.90
2023-03-21T06:42:25.513Z,99.90
2023-03-21T06:44:59.953Z,99.90
2023-03-21T06:47:29.035Z,99.90
2023-03-21T06:49:59.360Z,99.90
2023-03-21T06:52:27.892Z,99.90
2023-03-21T06:54:56.636Z,99.90
2023-03-21T06:57:24.723Z,99.90
2023-03-21T06:59:53.239Z,99.90
2023-03-21T07:02:24.329Z,99.90
2023-03-21T07:05:04.208Z,99.90
2023-03-21T07:07:32.575Z,99.90
2023-03-21T07:10:01.647Z,99.90
2023-03-21T07:12:35.979Z,99.90
2023-03-21T07:15:13.120Z,99.90
2023-03-21T07:17:45.939Z,99.90
2023-03-21T07:20:16.097Z,99.90
2023-03-21T07:22:44.583Z,99.90
2023-03-21T07:25:12.796Z,99.90
2023-03-21T07:27:42.303Z,99.90
2023-03-21T07:30:11.508Z,99.90
2023-03-21T07:32:40.234Z,99.90
2023-03-21T07:35:09.288Z,99.90
2023-03-21T07:37:39.054Z,99.90
2023-03-21T07:40:11.044Z,99.90
2023-03-21T07:42:42.233Z,99.90
2023-03-21T07:45:16.594Z,99.90
2023-03-21T07:47:46.787Z,99.90
2023-03-21T07:50:15.286Z,99.90
2023-03-21T07:52:44.860Z,99.90
2023-03-21T07:55:12.959Z,99.90
2023-03-21T07:57:42.147Z,99.90
2023-03-21T08:00:10.918Z,99.90
2023-03-21T08:02:43.506Z,99.90
2023-03-21T08:05:12.030Z,99.90
2023-03-21T08:07:40.856Z,99.90
2023-03-21T08:10:11.840Z,99.90
2023-03-21T08:12:41.550Z,99.90
2023-03-21T08:15:09.949Z,99.90
2023-03-21T08:17:39.866Z,99.90
2023-03-21T08:20:10.230Z,99.90
2023-03-21T08:22:38.782Z,99.90
2023-03-21T08:25:08.203Z,99.90
2023-03-21T08:27:38.500Z,99.90
2023-03-21T08:30:07.225Z,99.90
2023-03-21T08:33:00.845Z,99.90
2023-03-21T08:35:30.227Z,99.90
2023-03-21T08:37:59.025Z,99.90
2023-03-21T08:40:27.187Z,99.90
2023-03-21T08:42:57.114Z,99.90
2023-03-21T08:45:25.413Z,99.90
2023-03-21T08:47:53.953Z,99.90
2023-03-21T08:50:22.705Z,99.90
2023-03-21T08:52:51.294Z,99.90
2023-03-21T08:55:19.847Z,99.90
2023-03-21T08:57:47.900Z,99.90
2023-03-21T09:00:18.367Z,99.90
2023-03-21T09:02:46.818Z,99.90
2023-03-21T09:05:17.008Z,99.90
2023-03-21T09:07:45.520Z,99.90
2023-03-21T09:10:20.727Z,99.90
2023-03-21T09:12:50.045Z,99.90
2023-03-21T09:15:22.261Z,99.90
2023-03-21T09:17:52.977Z,99.90
2023-03-21T09:20:26.559Z,99.90
2023-03-21T09:22:54.776Z,99.90
2023-03-21T09:25:24.599Z,99.90
2023-03-21T09:27:53.694Z,99.90
2023-03-21T09:30:26.099Z,99.90
2023-03-21T09:32:55.909Z,99.90
2023-03-21T09:35:25.083Z,99.90
2023-03-21T09:37:53.137Z,99.90
2023-03-21T09:40:23.706Z,99.90
2023-03-21T09:43:00.162Z,99.90
2023-03-21T09:45:35.408Z,99.90
2023-03-21T09:48:07.946Z,99.90
2023-03-21T09:50:38.114Z,99.90
2023-03-21T09:53:08.468Z,99.90
2023-03-21T09:55:38.636Z,99.90
2023-03-21T09:58:09.377Z,99.90
2023-03-21T10:00:40.615Z,99.90
2023-03-21T10:03:17.532Z,99.90
2023-03-21T10:05:46.820Z,99.90
2023-03-21T10:08:18.440Z,99.90
2023-03-21T10:10:48.613Z,99.90
2023-03-21T10:13:18.367Z,99.90
2023-03-21T10:15:47.849Z,99.90
2023-03-21T10:18:21.988Z,99.90
2023-03-21T10:20:50.796Z,99.90
2023-03-21T10:23:21.181Z,99.90
2023-03-21T10:25:51.338Z,99.90
2023-03-21T10:28:21.718Z,99.90
2023-03-21T10:30:52.154Z,99.90
2023-03-21T10:33:22.094Z,99.90
2023-03-21T10:35:51.538Z,99.90
2023-03-21T10:38:21.027Z,99.90
2023-03-21T10:40:49.852Z,98.50
2023-03-21T10:43:19.612Z,99.90
2023-03-21T10:45:48.546Z,98.60
2023-03-21T10:48:18.179Z,98.30
2023-03-21T10:50:48.351Z,97.40
2023-03-21T10:53:18.985Z,99.40
2023-03-21T10:55:49.281Z,98.20
2023-03-21T10:58:19.090Z,98.00
2023-03-21T11:00:49.360Z,96.90
2023-03-21T11:03:22.902Z,95.30
2023-03-21T11:05:54.599Z,95.10
2023-03-21T11:08:22.726Z,94.60
2023-03-21T11:10:54.289Z,94.40
2023-03-21T11:13:25.083Z,94.90
2023-03-21T11:15:55.225Z,93.30
2023-03-21T11:18:25.877Z,90.60
2023-03-21T11:20:55.904Z,88.80
2023-03-21T11:23:26.949Z,88.60
2023-03-21T11:25:56.109Z,88.10
2023-03-21T11:28:25.429Z,86.40
2023-03-21T11:30:55.340Z,85.00
2023-03-21T11:33:28.327Z,83.80
2023-03-21T11:36:00.841Z,86.40
2023-03-21T11:38:32.021Z,86.20
2023-03-21T11:41:02.115Z,85.20
2023-03-21T11:43:33.180Z,83.00
2023-03-21T11:46:02.465Z,82.00
2023-03-21T11:48:33.134Z,81.40
2023-03-21T11:51:03.829Z,77.90
2023-03-21T11:53:36.876Z,75.80
2023-03-21T11:56:08.513Z,75.30
2023-03-21T11:58:44.979Z,75.00
2023-03-21T12:01:17.834Z,72.60
2023-03-21T12:03:56.231Z,73.00
2023-03-21T12:06:27.508Z,74.80
2023-03-21T12:09:02.100Z,73.40
2023-03-21T12:11:37.206Z,71.30
2023-03-21T12:14:09.957Z,70.30
2023-03-21T12:16:44.597Z,69.10
2023-03-21T12:19:31.723Z,66.60
2023-03-21T12:22:04.255Z,64.30
2023-03-21T12:24:33.958Z,63.40
2023-03-21T12:27:06.432Z,64.10
2023-03-21T12:29:40.136Z,63.10
2023-03-21T12:32:16.215Z,62.40
2023-03-21T12:34:55.043Z,63.10
2023-03-21T12:37:30.342Z,61.90
2023-03-21T12:40:07.527Z,60.90
2023-03-21T12:42:56.817Z,62.30
2023-03-21T12:45:29.472Z,60.30
2023-03-21T12:48:02.741Z,62.60
2023-03-21T12:50:36.748Z,63.60
2023-03-21T12:53:21.890Z,63.10
2023-03-21T12:55:50.522Z,62.10
2023-03-21T12:58:21.650Z,60.80
2023-03-21T13:00:51.694Z,61.10
2023-03-21T13:03:30.605Z,60.50
2023-03-21T13:06:07.657Z,59.40
2023-03-21T13:08:38.396Z,59.10
2023-03-21T13:11:07.599Z,58.10
2023-03-21T13:13:38.130Z,56.60
2023-03-21T13:16:09.295Z,55.40
2023-03-21T13:18:45.635Z,55.20
2023-03-21T13:21:17.647Z,54.40
2023-03-21T13:24:00.523Z,55.30
2023-03-21T13:26:39.235Z,52.80
2023-03-21T13:29:14.662Z,52.30
2023-03-21T13:31:52.106Z,50.80
2023-03-21T13:34:22.549Z,51.30
2023-03-21T13:36:52.681Z,48.20
2023-03-21T13:39:21.967Z,46.30
2023-03-21T13:41:50.247Z,45.50
2023-03-21T13:44:25.698Z,43.70
2023-03-21T13:47:00.305Z,44.00
2023-03-21T13:49:31.206Z,44.40
2023-03-21T13:52:01.888Z,45.20
2023-03-21T13:54:42.090Z,43.60
2023-03-21T13:57:21.798Z,42.20
2023-03-21T13:59:51.108Z,40.20
2023-03-21T14:02:23.979Z,38.20
2023-03-21T14:05:05.426Z,37.70
2023-03-21T14:07:37.253Z,38.70
2023-03-21T14:10:07.808Z,38.80
2023-03-21T14:12:38.111Z,39.10
2023-03-21T14:15:16.294Z,39.50
2023-03-21T14:17:50.596Z,38.50
2023-03-21T14:20:20.946Z,37.60
2023-03-21T14:22:51.141Z,38.00
2023-03-21T14:25:20.881Z,38.50
2023-03-21T14:27:50.427Z,39.20
2023-03-21T14:30:23.928Z,40.40
2023-03-21T14:32:54.309Z,41.50
2023-03-21T14:35:22.763Z,42.90
2023-03-21T14:37:52.445Z,43.90
2023-03-21T14:40:22.358Z,46.80
2023-03-21T14:42:51.425Z,47.60
2023-03-21T14:45:21.807Z,48.50
2023-03-21T14:47:57.337Z,49.60
2023-03-21T14:50:29.037Z,50.80
2023-03-21T14:52:58.884Z,51.90
2023-03-21T14:55:27.353Z,52.50
2023-03-21T14:57:56.025Z,53.10
2023-03-21T15:00:25.384Z,53.60
2023-03-21T15:02:54.686Z,54.90
2023-03-21T15:05:25.917Z,57.00
2023-03-21T15:07:55.392Z,56.30
2023-03-21T15:10:25.486Z,56.70
2023-03-21T15:12:54.816Z,57.20
2023-03-21T15:15:26.716Z,57.50
2023-03-21T15:17:57.935Z,58.70
2023-03-21T15:20:27.849Z,59.10
2023-03-21T15:22:58.808Z,59.10
2023-03-21T15:25:30.312Z,60.20
2023-03-21T15:27:59.032Z,61.00
2023-03-21T15:30:28.934Z,60.50
2023-03-21T15:32:57.373Z,61.10
2023-03-21T15:35:28.105Z,61.90
2023-03-21T15:37:57.008Z,62.00
2023-03-21T15:40:27.122Z,61.90
2023-03-21T15:43:07.355Z,62.30
2023-03-21T15:45:46.960Z,63.40
2023-03-21T15:48:15.858Z,63.20
2023-03-21T15:50:48.618Z,62.40
2023-03-21T15:53:17.998Z,62.90
2023-03-21T15:55:50.181Z,62.70
2023-03-21T15:58:21.333Z,62.90
2023-03-21T16:00:54.800Z,63.40
2023-03-21T16:03:26.748Z,63.50
2023-03-21T16:06:03.588Z,62.10
2023-03-21T16:08:35.544Z,62.30
2023-03-21T16:11:08.266Z,62.50
2023-03-21T16:13:38.602Z,61.90
2023-03-21T16:16:07.899Z,62.50
2023-03-21T16:18:38.372Z,63.10
2023-03-21T16:21:07.445Z,63.80
2023-03-21T16:23:35.650Z,64.60
2023-03-21T16:26:05.976Z,65.20
2023-03-21T16:28:40.444Z,65.60
2023-03-21T16:31:11.327Z,65.90
2023-03-21T16:33:40.446Z,66.80
2023-03-21T16:36:14.291Z,67.20
2023-03-21T16:38:44.828Z,68.20
2023-03-21T16:41:16.416Z,68.00
2023-03-21T16:43:46.857Z,69.20
2023-03-21T16:46:16.707Z,69.40
2023-03-21T16:48:46.669Z,69.80
2023-03-21T16:51:16.652Z,69.60
2023-03-21T16:53:45.266Z,69.90
2023-03-21T16:56:15.890Z,69.40
2023-03-21T16:58:45.111Z,71.00
2023-03-21T17:01:20.130Z,69.90
2023-03-21T17:03:51.122Z,69.70
2023-03-21T17:06:19.969Z,70.60
2023-03-21T17:08:49.135Z,71.10
2023-03-21T17:11:20.103Z,71.00
2023-03-21T17:13:50.702Z,70.90
2023-03-21T17:16:22.064Z,70.80
2023-03-21T17:18:51.034Z,72.90
2023-03-21T17:21:20.069Z,71.40
2023-03-21T17:23:50.388Z,72.10
2023-03-21T17:26:43.662Z,72.10
2023-03-21T17:29:16.105Z,72.80
2023-03-21T17:31:50.269Z,73.00
2023-03-21T17:34:19.670Z,73.30
2023-03-21T17:36:48.788Z,73.00
2023-03-21T17:39:19.841Z,73.20
2023-03-21T17:41:48.050Z,73.60
2023-03-21T17:44:19.058Z,74.50
2023-03-21T17:46:51.149Z,74.20
2023-03-21T17:49:21.387Z,74.20
2023-03-21T17:51:50.563Z,73.80
2023-03-21T17:54:18.925Z,76.60
2023-03-21T17:56:47.334Z,76.60
2023-03-21T17:59:15.796Z,76.20
2023-03-21T18:01:44.790Z,76.20
2023-03-21T18:04:18.836Z,75.90
2023-03-21T18:06:47.705Z,75.30
2023-03-21T18:09:21.333Z,76.40
2023-03-21T18:11:50.289Z,75.40
2023-03-21T18:14:27.011Z,76.70
2023-03-21T18:16:57.398Z,76.70
2023-03-21T18:19:27.506Z,76.60
2023-03-21T18:21:56.175Z,77.20
2023-03-21T18:24:27.349Z,77.50
2023-03-21T18:26:55.738Z,77.50
2023-03-21T18:32:14.089Z,77.30
2023-03-21T18:34:43.719Z,77.50
2023-03-21T18:37:13.531Z,77.40
2023-03-21T18:39:44.490Z,77.70
2023-03-21T18:42:17.729Z,78.40
2023-03-21T18:44:48.845Z,78.50
2023-03-21T18:47:17.468Z,78.60
2023-03-21T18:50:13.815Z,79.50
2023-03-21T18:52:35.473Z,79.40
2023-03-21T18:55:04.745Z,79.60
2023-03-21T18:57:37.404Z,79.90
2023-03-21T19:00:12.608Z,81.30
2023-03-21T19:02:47.748Z,81.00
2023-03-21T19:05:21.133Z,81.60
2023-03-21T19:07:50.105Z,81.50
2023-03-21T19:10:20.665Z,81.90
2023-03-21T19:12:49.672Z,82.70
2023-03-21T19:15:19.741Z,81.80
2023-03-21T19:20:38.830Z,83.00
2023-03-21T19:23:09.708Z,82.40
2023-03-21T19:25:39.329Z,83.20
2023-03-21T19:28:10.057Z,82.10
2023-03-21T19:30:38.334Z,81.80
2023-03-21T19:33:06.986Z,82.00
2023-03-21T19:35:42.203Z,82.80
2023-03-21T19:38:12.158Z,83.10
2023-03-21T19:40:40.630Z,82.90
2023-03-21T19:43:31.277Z,82.50
2023-03-21T19:46:00.817Z,84.80
2023-03-21T19:48:28.983Z,83.60
2023-03-21T19:53:51.423Z,84.00
2023-03-21T19:56:23.022Z,84.10
2023-03-21T19:58:54.776Z,84.20
2023-03-21T20:01:23.962Z,85.30
2023-03-21T20:03:54.957Z,85.80
2023-03-21T20:06:24.434Z,86.40
2023-03-21T20:11:53.250Z,86.70
2023-03-21T20:14:22.027Z,87.00
2023-03-21T20:16:50.128Z,87.20
2023-03-21T20:19:20.069Z,87.00
2023-03-21T20:21:57.892Z,87.50
2023-03-21T20:24:27.566Z,88.00
2023-03-21T20:26:56.734Z,88.60
2023-03-21T20:32:13.643Z,89.80
2023-03-21T20:34:44.293Z,90.30
2023-03-21T20:37:14.599Z,90.50
2023-03-21T20:39:42.926Z,90.70
2023-03-21T20:42:11.414Z,91.30
2023-03-21T20:44:56.348Z,90.90
2023-03-21T20:47:26.707Z,91.30
2023-03-21T20:49:56.690Z,91.60
2023-03-21T20:52:54.903Z,91.80
2023-03-21T20:55:14.928Z,91.80
2023-03-21T20:57:44.447Z,92.20
2023-03-21T21:00:17.111Z,92.20
2023-03-21T21:02:49.828Z,92.40
2023-03-21T21:05:29.969Z,92.80
2023-03-21T21:08:04.570Z,93.10
2023-03-21T21:10:33.784Z,93.70
2023-03-21T21:13:02.854Z,94.00
2023-03-21T21:15:31.288Z,94.70
2023-03-21T21:18:06.207Z,95.10
2023-03-21T21:20:35.892Z,96.10
2023-03-21T21:23:07.680Z,96.40
2023-03-21T21:25:35.998Z,97.10
2023-03-21T21:28:09.331Z,97.50
2023-03-21T21:30:38.777Z,97.80
2023-03-21T21:33:07.197Z,98.30
2023-03-21T21:35:35.823Z,99.70
2023-03-21T21:38:05.894Z,99.80
2023-03-21T21:40:34.111Z,99.90
2023-03-21T21:43:03.715Z,99.90
2023-03-21T21:45:32.719Z,99.90
2023-03-21T21:48:01.034Z,99.90
2023-03-21T21:50:29.119Z,99.90
2023-03-21T21:52:58.063Z,99.90
2023-03-21T21:55:27.479Z,99.90
2023-03-21T21:57:58.270Z,99.90
2023-03-21T22:00:27.578Z,99.90
2023-03-21T22:02:56.135Z,99.90
2023-03-21T22:05:24.196Z,99.90
2023-03-21T22:07:53.381Z,99.90
2023-03-21T22:10:22.699Z,99.90
2023-03-21T22:12:52.709Z,99.90
2023-03-21T22:15:22.541Z,99.90
2023-03-21T22:17:51.211Z,99.90
2023-03-21T22:20:21.070Z,99.90
2023-03-21T22:22:49.466Z,99.90
2023-03-21T22:25:18.231Z,99.90
2023-03-21T22:27:47.157Z,99.90
2023-03-21T22:30:18.749Z,99.90
2023-03-21T22:32:56.491Z,99.90
2023-03-21T22:35:31.493Z,99.90
2023-03-21T22:37:59.688Z,99.90
2023-03-21T22:40:27.958Z,99.90
2023-03-21T22:42:56.581Z,99.90
2023-03-21T22:45:26.011Z,99.90
2023-03-21T22:47:54.716Z,99.90
2023-03-21T22:50:22.762Z,99.90
2023-03-21T22:52:51.177Z,99.90
2023-03-21T22:55:19.368Z,99.90
2023-03-21T22:57:47.702Z,99.90
2023-03-21T23:00:16.182Z,99.90
2023-03-21T23:02:46.100Z,99.90
2023-03-21T23:05:14.235Z,99.90
2023-03-21T23:07:42.468Z,99.90
2023-03-21T23:10:12.092Z,99.90
2023-03-21T23:12:40.538Z,99.90
2023-03-21T23:15:09.247Z,99.90
2023-03-21T23:17:37.944Z,99.90
2023-03-21T23:20:08.899Z,99.90
2023-03-21T23:22:37.429Z,99.90
2023-03-21T23:25:06.732Z,99.90
2023-03-21T23:27:36.204Z,99.90
2023-03-21T23:30:06.483Z,99.90
2023-03-21T23:32:34.850Z,99.90
2023-03-21T23:35:03.580Z,99.90
2023-03-21T23:37:32.956Z,99.90
2023-03-21T23:40:01.546Z,99.90
2023-03-21T23:42:30.043Z,99.90
2023-03-21T23:44:58.675Z,99.90
2023-03-21T23:47:26.720Z,99.90
2023-03-21T23:49:55.090Z,99.90
2023-03-21T23:52:23.108Z,99.90
2023-03-21T23:54:52.954Z,99.90
2023-03-21T23:57:21.848Z,99.90
2023-03-21T23:59:50.259Z,99.90
